createdAt,value
2022-11-30T00:01:18.311Z,12.70
2022-11-30T00:03:45.347Z,10.80
2022-11-30T00:06:17.118Z,10.40
2022-11-30T00:08:44.045Z,14.05
2022-11-30T00:11:10.974Z,11.10
2022-11-30T00:13:37.659Z,8.85
2022-11-30T00:16:04.845Z,12.30
2022-11-30T00:18:31.616Z,10.02
2022-11-30T00:21:03.256Z,7.93
2022-11-30T00:23:41.091Z,9.93
2022-11-30T00:26:11.783Z,16.60
2022-11-30T00:28:39.282Z,9.63
2022-11-30T00:31:10.128Z,13.30
2022-11-30T00:33:38.419Z,10.43
2022-11-30T00:36:12.240Z,9.40
2022-11-30T00:38:39.311Z,12.75
2022-11-30T00:41:07.674Z,10.45
2022-11-30T00:43:34.322Z,10.38
2022-11-30T00:46:01.314Z,10.70
2022-11-30T00:48:28.501Z,7.57
2022-11-30T00:50:55.228Z,9.50
2022-11-30T00:53:22.590Z,9.70
2022-11-30T00:55:49.705Z,9.07
2022-11-30T00:58:16.533Z,10.85
2022-11-30T01:00:43.479Z,10.00
2022-11-30T01:03:10.531Z,10.77
2022-11-30T01:05:37.258Z,9.05
2022-11-30T01:08:06.190Z,10.90
2022-11-30T01:10:33.803Z,10.25
2022-11-30T01:13:01.153Z,9.98
2022-11-30T01:15:28.029Z,11.00
2022-11-30T01:17:54.778Z,12.25
2022-11-30T01:20:21.868Z,11.23
2022-11-30T01:22:48.443Z,10.38
2022-11-30T01:25:15.175Z,8.73
2022-11-30T01:27:42.087Z,8.05
2022-11-30T01:30:09.401Z,8.13
2022-11-30T01:32:36.064Z,8.27
2022-11-30T01:35:02.720Z,8.40
2022-11-30T01:37:30.217Z,10.25
2022-11-30T01:39:57.150Z,9.25
2022-11-30T01:42:24.385Z,10.07
2022-11-30T01:44:54.886Z,8.27
2022-11-30T01:47:45.310Z,8.98
2022-11-30T01:50:24.385Z,9.40
2022-11-30T01:52:54.092Z,11.00
2022-11-30T01:55:24.521Z,9.32
2022-11-30T01:58:09.797Z,10.13
2022-11-30T02:00:36.424Z,10.13
2022-11-30T02:03:24.680Z,8.70
2022-11-30T02:05:51.404Z,8.48
2022-11-30T02:08:19.470Z,11.70
2022-11-30T02:10:53.049Z,9.75
2022-11-30T02:13:25.772Z,8.73
2022-11-30T02:16:29.584Z,9.98
2022-11-30T02:22:07.059Z,7.78
2022-11-30T02:25:14.437Z,8.35
2022-11-30T02:27:59.331Z,7.85
2022-11-30T02:30:26.359Z,11.40
2022-11-30T02:33:07.155Z,10.95
2022-11-30T02:35:37.120Z,9.55
2022-11-30T02:38:05.277Z,8.68
2022-11-30T02:40:32.329Z,10.27
2022-11-30T02:43:02.436Z,8.63
2022-11-30T02:45:58.484Z,8.90
2022-11-30T02:49:09.351Z,9.77
2022-11-30T02:51:38.779Z,8.55
2022-11-30T02:54:05.653Z,8.95
2022-11-30T02:56:33.619Z,8.93
2022-11-30T02:59:00.577Z,8.95
2022-11-30T03:01:27.356Z,8.52
2022-11-30T03:03:54.227Z,8.82
2022-11-30T03:06:20.899Z,8.63
2022-11-30T03:08:47.592Z,9.30
2022-11-30T03:11:14.211Z,8.25
2022-11-30T03:13:40.832Z,8.43
2022-11-30T03:16:14.014Z,7.32
2022-11-30T03:21:09.812Z,7.38
2022-11-30T03:23:37.341Z,6.70
2022-11-30T03:26:05.276Z,7.28
2022-11-30T03:28:32.619Z,13.93
2022-11-30T03:30:59.771Z,8.27
2022-11-30T03:33:26.478Z,9.13
2022-11-30T03:36:04.412Z,8.88
2022-11-30T03:38:31.996Z,9.85
2022-11-30T03:41:10.853Z,9.38
2022-11-30T03:43:37.505Z,8.05
2022-11-30T03:46:04.880Z,7.82
2022-11-30T03:48:31.808Z,6.95
2022-11-30T03:50:58.982Z,7.72
2022-11-30T03:53:25.944Z,8.73
2022-11-30T03:56:01.736Z,9.73
2022-11-30T03:58:29.230Z,8.05
2022-11-30T04:01:04.921Z,8.88
2022-11-30T04:03:32.247Z,10.32
2022-11-30T04:05:59.669Z,7.70
2022-11-30T04:08:27.382Z,7.25
2022-11-30T04:10:55.831Z,7.15
2022-11-30T04:13:23.424Z,8.02
2022-11-30T04:15:52.158Z,8.55
2022-11-30T04:18:20.125Z,8.82
2022-11-30T04:20:47.517Z,7.25
2022-11-30T04:23:14.274Z,9.40
2022-11-30T04:25:42.016Z,9.10
2022-11-30T04:28:09.925Z,11.95
2022-11-30T04:30:37.816Z,7.43
2022-11-30T04:33:05.561Z,9.15
2022-11-30T04:35:32.788Z,8.60
2022-11-30T04:38:00.423Z,8.85
2022-11-30T04:40:27.233Z,7.95
2022-11-30T04:42:54.084Z,7.50
2022-11-30T04:45:20.777Z,6.68
2022-11-30T04:47:47.425Z,8.68
2022-11-30T04:50:14.048Z,6.93
2022-11-30T04:52:40.685Z,7.35
2022-11-30T04:55:07.764Z,8.52
2022-11-30T04:57:34.505Z,6.97
2022-11-30T05:00:01.159Z,8.88
2022-11-30T05:02:30.520Z,7.72
2022-11-30T05:04:57.143Z,9.90
2022-11-30T05:07:23.792Z,7.97
2022-11-30T05:09:50.537Z,8.10
2022-11-30T05:12:17.246Z,8.38
2022-11-30T05:14:43.900Z,7.88
2022-11-30T05:17:10.653Z,7.07
2022-11-30T05:19:37.315Z,7.65
2022-11-30T05:22:03.950Z,7.65
2022-11-30T05:24:30.588Z,8.20
2022-11-30T05:26:57.301Z,7.40
2022-11-30T05:29:24.132Z,10.60
2022-11-30T05:31:51.046Z,8.68
2022-11-30T05:34:17.808Z,9.40
2022-11-30T05:36:44.519Z,7.38
2022-11-30T05:39:11.323Z,8.60
2022-11-30T05:41:38.043Z,6.18
2022-11-30T05:44:05.379Z,6.57
2022-11-30T05:46:32.064Z,8.00
2022-11-30T05:48:58.736Z,9.57
2022-11-30T05:51:25.403Z,8.63
2022-11-30T05:53:52.082Z,6.38
2022-11-30T05:56:20.647Z,7.72
2022-11-30T05:58:48.821Z,7.30
2022-11-30T06:01:24.810Z,6.70
2022-11-30T06:03:52.077Z,7.10
2022-11-30T06:06:19.492Z,8.07
2022-11-30T06:08:47.573Z,7.72
2022-11-30T06:11:15.090Z,9.32
2022-11-30T06:13:41.801Z,6.93
2022-11-30T06:16:09.411Z,7.20
2022-11-30T06:18:37.861Z,9.00
2022-11-30T06:21:07.549Z,7.25
2022-11-30T06:23:34.809Z,7.70
2022-11-30T06:26:06.680Z,6.25
2022-11-30T06:28:33.992Z,7.18
2022-11-30T06:31:03.786Z,7.57
2022-11-30T06:33:30.909Z,6.05
2022-11-30T06:35:57.605Z,7.97
2022-11-30T06:38:25.955Z,11.95
2022-11-30T06:40:53.449Z,5.85
2022-11-30T06:43:20.432Z,8.60
2022-11-30T06:45:47.762Z,9.48
2022-11-30T06:48:14.757Z,7.13
2022-11-30T06:50:45.480Z,11.25
2022-11-30T06:53:15.933Z,10.05
2022-11-30T06:55:43.357Z,7.70
2022-11-30T06:58:11.213Z,5.43
2022-11-30T07:00:41.871Z,7.57
2022-11-30T07:03:09.558Z,9.57
2022-11-30T07:05:44.335Z,8.45
2022-11-30T07:08:12.420Z,7.55
2022-11-30T07:10:41.225Z,8.18
2022-11-30T07:13:12.134Z,8.23
2022-11-30T07:15:40.341Z,8.43
2022-11-30T07:18:08.065Z,6.45
2022-11-30T07:20:35.195Z,8.82
2022-11-30T07:23:20.886Z,5.80
2022-11-30T07:26:06.418Z,6.30
2022-11-30T07:28:35.146Z,10.00
2022-11-30T07:31:03.468Z,7.32
2022-11-30T07:33:31.945Z,9.02
2022-11-30T07:35:59.539Z,8.13
2022-11-30T07:38:26.260Z,9.93
2022-11-30T07:40:53.064Z,6.80
2022-11-30T07:43:19.716Z,9.02
2022-11-30T07:45:52.395Z,8.73
2022-11-30T07:48:20.055Z,6.60
2022-11-30T07:50:47.567Z,7.70
2022-11-30T07:53:15.095Z,8.13
2022-11-30T07:55:42.705Z,7.32
2022-11-30T07:58:16.998Z,8.75
2022-11-30T08:00:44.142Z,5.53
2022-11-30T08:03:10.976Z,8.38
2022-11-30T08:05:37.689Z,7.63
2022-11-30T08:08:04.333Z,10.13
2022-11-30T08:10:31.396Z,7.05
2022-11-30T08:12:58.053Z,11.35
2022-11-30T08:15:31.882Z,8.93
2022-11-30T08:18:05.363Z,7.05
2022-11-30T08:20:32.105Z,9.98
2022-11-30T08:22:58.951Z,8.48
2022-11-30T08:25:25.624Z,6.47
2022-11-30T08:27:52.345Z,7.47
2022-11-30T08:30:19.084Z,7.25
2022-11-30T08:32:45.775Z,7.72
2022-11-30T08:35:12.709Z,9.65
2022-11-30T08:37:39.351Z,9.77
2022-11-30T08:40:06.672Z,7.05
2022-11-30T08:42:33.349Z,10.90
2022-11-30T08:45:00.482Z,7.53
2022-11-30T08:47:30.344Z,6.25
2022-11-30T08:49:58.234Z,6.68
2022-11-30T08:52:25.204Z,7.63
2022-11-30T08:54:52.280Z,7.38
2022-11-30T08:57:21.398Z,8.88
2022-11-30T08:59:48.855Z,6.03
2022-11-30T09:02:18.088Z,6.38
2022-11-30T09:04:47.609Z,9.80
2022-11-30T09:07:14.749Z,8.35
2022-11-30T09:09:41.420Z,6.55
2022-11-30T09:12:08.229Z,8.13
2022-11-30T09:14:35.173Z,9.45
2022-11-30T09:17:02.103Z,8.65
2022-11-30T09:19:28.802Z,7.72
2022-11-30T09:21:55.437Z,8.82
2022-11-30T09:24:22.318Z,9.50
2022-11-30T09:26:49.023Z,10.18
2022-11-30T09:29:20.976Z,13.60
2022-11-30T09:31:49.143Z,8.65
2022-11-30T09:34:15.906Z,8.88
2022-11-30T09:36:42.568Z,6.50
2022-11-30T09:39:12.840Z,8.00
2022-11-30T09:41:58.746Z,12.48
2022-11-30T09:44:34.390Z,11.30
2022-11-30T09:47:25.024Z,15.20
2022-11-30T09:49:54.070Z,19.00
2022-11-30T09:52:33.881Z,11.50
2022-11-30T09:55:07.145Z,9.13
2022-11-30T10:00:05.173Z,11.32
2022-11-30T10:02:38.123Z,13.48
2022-11-30T10:05:20.044Z,12.68
2022-11-30T10:08:17.692Z,10.98
2022-11-30T10:11:03.509Z,12.10
2022-11-30T10:13:48.188Z,12.77
2022-11-30T10:16:42.422Z,14.05
2022-11-30T10:19:21.205Z,13.48
2022-11-30T10:21:57.884Z,14.38
2022-11-30T10:25:03.876Z,21.88
2022-11-30T10:27:48.994Z,11.20
2022-11-30T10:30:18.981Z,14.30
2022-11-30T10:32:51.092Z,11.07
2022-11-30T10:35:28.651Z,17.95
2022-11-30T10:37:58.511Z,12.75
2022-11-30T10:40:49.498Z,10.98
2022-11-30T10:43:34.170Z,14.32
2022-11-30T10:46:00.912Z,12.27
2022-11-30T10:48:33.187Z,9.63
2022-11-30T10:51:01.916Z,14.50
2022-11-30T10:53:28.693Z,15.27
2022-11-30T10:55:57.902Z,11.82
2022-11-30T10:58:36.891Z,18.95
2022-11-30T11:01:10.249Z,13.85
2022-11-30T11:03:37.884Z,14.32
2022-11-30T11:06:15.838Z,10.82
2022-11-30T11:08:42.797Z,10.45
2022-11-30T11:11:39.040Z,13.57
2022-11-30T11:14:16.200Z,12.68
2022-11-30T11:17:00.217Z,11.35
2022-11-30T11:19:34.755Z,13.32
2022-11-30T11:22:04.953Z,11.02
2022-11-30T11:24:32.987Z,18.35
2022-11-30T11:26:59.892Z,17.70
2022-11-30T11:29:33.145Z,15.98
2022-11-30T11:34:53.651Z,12.98
2022-11-30T11:37:29.760Z,21.20
2022-11-30T11:40:08.189Z,14.02
2022-11-30T11:42:43.057Z,17.42
2022-11-30T11:45:23.827Z,15.23
2022-11-30T11:47:59.775Z,18.77
2022-11-30T11:53:55.927Z,15.30
2022-11-30T11:56:27.141Z,13.05
2022-11-30T11:59:23.442Z,15.80
2022-11-30T12:02:29.614Z,12.30
2022-11-30T12:05:02.896Z,15.10
2022-11-30T12:07:38.637Z,13.05
2022-11-30T12:13:17.146Z,13.95
2022-11-30T12:16:05.773Z,21.65
2022-11-30T12:18:32.444Z,15.13
2022-11-30T12:21:15.055Z,20.10
2022-11-30T12:24:03.522Z,12.10
2022-11-30T12:27:04.598Z,16.58
2022-11-30T12:30:17.678Z,10.98
2022-11-30T12:33:03.019Z,17.38
2022-11-30T12:36:07.245Z,12.35
2022-11-30T12:39:11.049Z,14.48
2022-11-30T12:41:53.311Z,15.65
2022-11-30T12:44:42.067Z,15.43
2022-11-30T12:47:30.534Z,15.60
2022-11-30T12:50:26.521Z,17.77
2022-11-30T12:53:28.665Z,17.17
2022-11-30T12:56:12.895Z,15.13
2022-11-30T12:59:11.714Z,15.10
2022-11-30T13:01:41.529Z,17.80
2022-11-30T13:04:13.241Z,20.63
2022-11-30T13:06:45.734Z,24.17
2022-11-30T13:09:29.937Z,19.90
2022-11-30T13:12:03.580Z,13.90
2022-11-30T13:14:31.583Z,17.30
2022-11-30T13:17:19.150Z,15.65
2022-11-30T13:19:49.155Z,16.52
2022-11-30T13:22:51.661Z,13.25
2022-11-30T13:26:07.366Z,18.63
2022-11-30T13:28:50.749Z,17.83
2022-11-30T13:31:24.533Z,19.08
2022-11-30T13:33:53.951Z,15.10
2022-11-30T13:36:41.559Z,17.42
2022-11-30T13:39:14.117Z,13.35
2022-11-30T13:41:49.656Z,13.85
2022-11-30T13:44:24.784Z,17.85
2022-11-30T13:46:53.299Z,15.32
2022-11-30T13:49:28.157Z,16.73
2022-11-30T13:52:20.728Z,25.30
2022-11-30T13:54:46.813Z,15.23
2022-11-30T13:57:28.954Z,16.30
2022-11-30T13:59:57.753Z,16.05
2022-11-30T14:02:33.848Z,22.52
2022-11-30T14:05:18.904Z,17.67
2022-11-30T14:07:47.038Z,21.80
2022-11-30T14:10:40.089Z,18.55
2022-11-30T14:13:09.928Z,17.20
2022-11-30T14:15:39.413Z,18.23
2022-11-30T14:18:09.039Z,14.77
2022-11-30T14:20:57.561Z,15.38
2022-11-30T14:23:39.308Z,20.33
2022-11-30T14:26:12.972Z,18.17
2022-11-30T14:28:52.289Z,16.77
2022-11-30T14:31:25.041Z,19.67
2022-11-30T14:33:54.599Z,19.42
2022-11-30T14:36:23.207Z,16.13
2022-11-30T14:38:49.898Z,19.35
2022-11-30T14:41:22.202Z,18.52
2022-11-30T14:44:07.047Z,18.00
2022-11-30T14:46:35.915Z,17.92
2022-11-30T14:49:22.501Z,18.52
2022-11-30T14:52:03.639Z,22.00
2022-11-30T14:54:33.249Z,18.67
2022-11-30T14:57:07.426Z,18.55
2022-11-30T14:59:48.009Z,16.23
2022-11-30T15:02:20.483Z,17.77
2022-11-30T15:04:49.942Z,16.87
2022-11-30T15:07:17.414Z,17.85
2022-11-30T15:09:47.824Z,19.60
2022-11-30T15:12:23.810Z,14.90
2022-11-30T15:15:05.763Z,22.25
2022-11-30T15:17:47.268Z,15.50
2022-11-30T15:20:20.784Z,19.67
2022-11-30T15:22:47.556Z,21.13
2022-11-30T15:25:14.706Z,13.98
2022-11-30T15:27:42.262Z,16.48
2022-11-30T15:30:18.114Z,12.63
2022-11-30T15:32:46.815Z,19.90
2022-11-30T15:35:23.189Z,13.95
2022-11-30T15:37:50.886Z,17.30
2022-11-30T15:40:33.815Z,17.95
2022-11-30T15:43:01.469Z,18.00
2022-11-30T15:45:31.611Z,17.08
2022-11-30T15:48:00.832Z,14.02
2022-11-30T15:50:30.047Z,16.15
2022-11-30T15:53:00.940Z,23.40
2022-11-30T15:55:40.936Z,17.80
2022-11-30T15:58:23.778Z,13.30
2022-11-30T16:01:12.215Z,15.38
2022-11-30T16:04:07.998Z,18.58
2022-11-30T16:06:34.627Z,20.33
2022-11-30T16:09:18.053Z,24.27
2022-11-30T16:14:16.916Z,13.55
2022-11-30T16:16:44.609Z,16.23
2022-11-30T16:19:11.383Z,13.27
2022-11-30T16:21:38.722Z,18.30
2022-11-30T16:24:05.943Z,17.23
2022-11-30T16:29:20.115Z,16.67
2022-11-30T16:31:46.826Z,15.20
2022-11-30T16:34:13.564Z,17.75
2022-11-30T16:36:40.203Z,17.40
2022-11-30T16:39:06.886Z,18.10
2022-11-30T16:41:35.086Z,17.05
2022-11-30T16:44:01.921Z,14.60
2022-11-30T16:46:30.118Z,20.90
2022-11-30T16:48:56.916Z,15.23
2022-11-30T16:51:28.091Z,19.45
2022-11-30T16:53:55.786Z,20.15
2022-11-30T16:56:22.546Z,14.20
2022-11-30T16:58:49.297Z,22.52
2022-11-30T17:01:38.559Z,19.25
2022-11-30T17:04:22.996Z,18.20
2022-11-30T17:06:53.686Z,14.00
2022-11-30T17:09:23.217Z,16.15
2022-11-30T17:11:51.146Z,12.13
2022-11-30T17:14:18.964Z,16.20
2022-11-30T17:16:45.697Z,16.33
2022-11-30T17:19:12.802Z,17.73
2022-11-30T17:21:42.381Z,16.30
2022-11-30T17:24:09.147Z,17.98
2022-11-30T17:26:35.875Z,19.08
2022-11-30T17:29:03.162Z,15.85
2022-11-30T17:31:30.073Z,19.63
2022-11-30T17:33:56.815Z,16.23
2022-11-30T17:36:23.602Z,13.65
2022-11-30T17:38:50.722Z,17.35
2022-11-30T17:41:19.801Z,15.27
2022-11-30T17:43:48.125Z,12.90
2022-11-30T17:46:17.372Z,22.60
2022-11-30T17:48:44.277Z,16.02
2022-11-30T17:51:11.699Z,15.65
2022-11-30T17:53:39.338Z,13.65
2022-11-30T17:56:07.645Z,16.40
2022-11-30T17:58:41.466Z,14.95
2022-11-30T18:01:24.223Z,18.50
2022-11-30T18:03:53.494Z,15.88
2022-11-30T18:06:20.700Z,20.27
2022-11-30T18:08:47.719Z,14.55
2022-11-30T18:11:20.550Z,17.13
2022-11-30T18:13:48.343Z,25.17
2022-11-30T18:16:18.528Z,26.98
2022-11-30T18:18:47.974Z,14.75
2022-11-30T18:21:18.076Z,17.60
2022-11-30T18:23:45.085Z,18.63
2022-11-30T18:26:14.235Z,16.48
2022-11-30T18:28:41.065Z,16.50
2022-11-30T18:31:07.921Z,36.05
2022-11-30T18:33:36.199Z,19.23
2022-11-30T18:36:06.783Z,17.45
2022-11-30T18:38:38.005Z,19.05
2022-11-30T18:41:06.420Z,18.60
2022-11-30T18:43:34.013Z,19.67
2022-11-30T18:46:05.525Z,15.77
2022-11-30T18:48:32.740Z,18.38
2022-11-30T18:50:59.753Z,16.00
2022-11-30T18:53:26.568Z,18.05
2022-11-30T18:55:53.206Z,15.02
2022-11-30T18:58:19.833Z,19.13
2022-11-30T19:00:46.523Z,15.20
2022-11-30T19:03:13.227Z,18.00
2022-11-30T19:05:40.968Z,17.30
2022-11-30T19:08:11.456Z,20.60
2022-11-30T19:10:40.114Z,21.42
2022-11-30T19:13:07.774Z,21.08
2022-11-30T19:15:42.081Z,19.42
2022-11-30T19:18:11.197Z,21.83
2022-11-30T19:20:41.634Z,21.50
2022-11-30T19:23:08.996Z,21.75
2022-11-30T19:25:35.721Z,18.42
2022-11-30T19:28:02.412Z,23.48
2022-11-30T19:30:29.297Z,18.20
2022-11-30T19:32:56.136Z,17.02
2022-11-30T19:35:25.224Z,24.25
2022-11-30T19:37:52.413Z,19.00
2022-11-30T19:40:19.293Z,20.02
2022-11-30T19:42:46.138Z,20.73
2022-11-30T19:45:12.775Z,17.90
2022-11-30T19:47:39.566Z,21.40
2022-11-30T19:50:06.730Z,18.55
2022-11-30T19:52:33.439Z,17.85
2022-11-30T19:55:00.036Z,22.45
2022-11-30T19:57:26.793Z,17.90
2022-11-30T19:59:53.838Z,16.77
2022-11-30T20:02:20.799Z,18.23
2022-11-30T20:04:47.787Z,13.90
2022-11-30T20:07:15.091Z,13.68
2022-11-30T20:09:41.794Z,16.17
2022-11-30T20:12:08.482Z,20.33
2022-11-30T20:14:36.878Z,24.50
2022-11-30T20:17:06.653Z,18.25
2022-11-30T20:19:33.507Z,25.67
2022-11-30T20:22:00.660Z,32.38
2022-11-30T20:24:27.533Z,18.60
2022-11-30T20:26:54.297Z,21.65
2022-11-30T20:29:21.019Z,31.40
2022-11-30T20:31:49.576Z,17.60
2022-11-30T20:34:16.985Z,16.95
2022-11-30T20:36:44.290Z,18.20
2022-11-30T20:39:11.935Z,16.02
2022-11-30T20:41:38.560Z,16.58
2022-11-30T20:44:05.605Z,19.90
2022-11-30T20:46:36.798Z,19.38
2022-11-30T20:49:11.723Z,17.15
2022-11-30T20:51:38.359Z,20.08
2022-11-30T20:54:07.128Z,19.52
2022-11-30T20:56:38.422Z,20.13
2022-11-30T20:59:08.052Z,16.83
2022-11-30T21:01:35.166Z,16.98
2022-11-30T21:04:02.031Z,14.98
2022-11-30T21:06:32.950Z,13.57
2022-11-30T21:08:59.812Z,12.70
2022-11-30T21:11:27.995Z,14.65
2022-11-30T21:13:56.241Z,17.05
2022-11-30T21:16:28.140Z,13.07
2022-11-30T21:19:00.324Z,12.18
2022-11-30T21:21:32.709Z,11.45
2022-11-30T21:24:01.294Z,12.53
2022-11-30T21:26:34.028Z,11.48
2022-11-30T21:29:04.140Z,17.00
2022-11-30T21:31:31.530Z,15.65
2022-11-30T21:33:58.259Z,12.25
2022-11-30T21:36:25.396Z,19.10
2022-11-30T21:39:06.136Z,16.08
2022-11-30T21:41:38.875Z,17.88
2022-11-30T21:44:07.653Z,10.55
2022-11-30T21:46:34.489Z,13.70
2022-11-30T21:49:01.766Z,11.68
2022-11-30T21:51:30.179Z,11.13
2022-11-30T21:53:59.065Z,11.73
2022-11-30T21:56:28.592Z,15.57
2022-11-30T21:58:55.851Z,12.18
2022-11-30T22:01:29.777Z,12.23
2022-11-30T22:03:59.182Z,16.08
2022-11-30T22:06:27.705Z,12.98
2022-11-30T22:08:57.501Z,11.82
2022-11-30T22:11:24.194Z,15.88
2022-11-30T22:13:53.013Z,15.35
2022-11-30T22:16:21.899Z,12.20
2022-11-30T22:18:51.781Z,14.40
2022-11-30T22:21:21.325Z,14.73
2022-11-30T22:23:56.703Z,14.80
2022-11-30T22:26:29.295Z,13.57
2022-11-30T22:29:11.253Z,11.02
2022-11-30T22:31:40.366Z,12.25
2022-11-30T22:34:07.522Z,11.68
2022-11-30T22:36:36.462Z,9.50
2022-11-30T22:39:03.012Z,11.10
2022-11-30T22:41:30.751Z,10.82
2022-11-30T22:43:58.784Z,12.65
2022-11-30T22:46:31.124Z,15.07
2022-11-30T22:49:02.652Z,10.53
2022-11-30T22:51:32.241Z,11.50
2022-11-30T22:54:00.081Z,9.60
2022-11-30T22:56:32.736Z,13.23
2022-11-30T22:59:00.969Z,9.95
2022-11-30T23:01:30.738Z,10.95
2022-11-30T23:04:12.208Z,16.30
2022-11-30T23:06:40.399Z,9.57
2022-11-30T23:09:10.947Z,10.32
2022-11-30T23:11:38.009Z,8.45
2022-11-30T23:14:08.267Z,9.20
2022-11-30T23:16:36.379Z,11.27
2022-11-30T23:19:03.581Z,8.63
2022-11-30T23:21:41.010Z,10.05
2022-11-30T23:24:12.534Z,8.38
2022-11-30T23:26:39.866Z,8.52
2022-11-30T23:29:10.245Z,8.40
2022-11-30T23:31:39.734Z,7.13
2022-11-30T23:34:10.778Z,11.77
2022-11-30T23:36:38.273Z,12.75
2022-11-30T23:39:08.202Z,11.73
2022-11-30T23:41:35.591Z,9.65
2022-11-30T23:44:02.870Z,7.82
2022-11-30T23:46:30.073Z,8.02
2022-11-30T23:48:57.057Z,6.07
2022-11-30T23:51:24.715Z,8.55
2022-11-30T23:53:51.520Z,8.15
2022-11-30T23:56:19.650Z,6.93
2022-11-30T23:58:46.910Z,7.43
